createdAt,value
2023-04-04T00:00:11.466Z,100170.63
2023-04-04T00:02:39.238Z,100174.75
2023-04-04T00:05:08.576Z,100170.34
2023-04-04T00:07:36.305Z,100165.91
2023-04-04T00:10:05.849Z,100164.19
2023-04-04T00:12:33.452Z,100163.13
2023-04-04T00:15:01.363Z,100165.09
2023-04-04T00:17:28.935Z,100164.03
2023-04-04T00:19:57.119Z,100152.81
2023-04-04T00:22:24.742Z,100166.72
2023-04-04T00:24:52.311Z,100157.31
2023-04-04T00:27:21.517Z,100152.06
2023-04-04T00:29:49.126Z,100155.31
2023-04-04T00:32:16.812Z,100150.19
2023-04-04T00:34:44.375Z,100153.72
2023-04-04T00:37:13.282Z,100147.69
2023-04-04T00:39:41.008Z,100147.59
2023-04-04T00:42:08.973Z,100145.16
2023-04-04T00:44:37.939Z,100142.44
2023-04-04T00:47:05.656Z,100137.28
2023-04-04T00:49:34.421Z,100141.69
2023-04-04T00:52:02.099Z,100136.34
2023-04-04T00:54:30.989Z,100141.53
2023-04-04T00:56:58.576Z,100130.50
2023-04-04T00:59:27.756Z,100130.38
2023-04-04T01:01:57.192Z,100126.16
2023-04-04T01:04:24.771Z,100137.19
2023-04-04T01:06:52.608Z,100134.41
2023-04-04T01:09:20.232Z,100144.03
2023-04-04T01:11:47.809Z,100139.69
2023-04-04T01:14:15.470Z,100138.81
2023-04-04T01:16:43.113Z,100138.00
2023-04-04T01:19:17.701Z,100128.34
2023-04-04T01:21:47.127Z,100135.25
2023-04-04T01:24:17.780Z,100135.31
2023-04-04T01:26:46.890Z,100131.69
2023-04-04T01:29:14.493Z,100133.44
2023-04-04T01:31:47.467Z,100127.38
2023-04-04T01:34:19.099Z,100125.69
2023-04-04T01:36:50.642Z,100130.25
2023-04-04T01:39:24.157Z,100123.34
2023-04-04T01:41:53.152Z,100118.94
2023-04-04T01:44:20.846Z,100118.91
2023-04-04T01:46:48.446Z,100115.44
2023-04-04T01:49:16.513Z,100116.06
2023-04-04T01:51:44.774Z,100124.06
2023-04-04T01:54:12.428Z,100114.59
2023-04-04T01:56:40.086Z,100109.38
2023-04-04T01:59:09.095Z,100111.81
2023-04-04T02:01:36.891Z,100114.38
2023-04-04T02:04:04.567Z,100119.66
2023-04-04T02:06:32.244Z,100119.47
2023-04-04T02:08:59.853Z,100115.38
2023-04-04T02:11:27.612Z,100112.78
2023-04-04T02:13:55.142Z,100119.59
2023-04-04T02:16:24.138Z,100131.63
2023-04-04T02:18:51.756Z,100124.66
2023-04-04T02:21:19.279Z,100132.44
2023-04-04T02:23:46.790Z,100132.56
2023-04-04T02:26:14.379Z,100138.22
2023-04-04T02:28:41.919Z,100131.63
2023-04-04T02:31:09.668Z,100124.63
2023-04-04T02:33:38.589Z,100132.44
2023-04-04T02:36:06.774Z,100133.19
2023-04-04T02:38:34.559Z,100133.19
2023-04-04T02:41:02.078Z,100130.63
2023-04-04T02:43:29.563Z,100125.47
2023-04-04T02:45:57.698Z,100123.81
2023-04-04T02:48:27.336Z,100118.66
2023-04-04T02:50:56.255Z,100121.94
2023-04-04T02:53:23.880Z,100116.81
2023-04-04T02:55:51.622Z,100124.78
2023-04-04T02:58:19.170Z,100109.69
2023-04-04T03:00:47.593Z,100116.78
2023-04-04T03:03:15.732Z,100120.22
2023-04-04T03:05:43.473Z,100115.66
2023-04-04T03:08:12.384Z,100104.31
2023-04-04T03:10:40.142Z,100121.66
2023-04-04T03:13:07.817Z,100113.97
2023-04-04T03:15:35.584Z,100116.84
2023-04-04T03:18:03.793Z,100109.00
2023-04-04T03:20:31.433Z,100120.19
2023-04-04T03:22:59.005Z,100117.63
2023-04-04T03:25:27.909Z,100108.81
2023-04-04T03:27:55.582Z,100115.63
2023-04-04T03:30:23.396Z,100107.81
2023-04-04T03:32:51.260Z,100114.75
2023-04-04T03:35:18.851Z,100106.16
2023-04-04T03:37:46.427Z,100103.66
2023-04-04T03:40:14.280Z,100103.41
2023-04-04T03:42:43.165Z,100101.81
2023-04-04T03:45:11.667Z,100109.59
2023-04-04T03:47:39.784Z,100100.13
2023-04-04T03:50:08.218Z,100107.03
2023-04-04T03:52:38.762Z,100111.19
2023-04-04T03:55:07.457Z,100106.88
2023-04-04T03:57:35.079Z,100099.97
2023-04-04T04:00:04.448Z,100101.66
2023-04-04T04:02:32.112Z,100091.31
2023-04-04T04:04:59.789Z,100092.88
2023-04-04T04:07:27.341Z,100096.38
2023-04-04T04:09:54.869Z,100101.66
2023-04-04T04:12:22.483Z,100095.53
2023-04-04T04:14:50.038Z,100088.72
2023-04-04T04:17:18.927Z,100095.50
2023-04-04T04:19:46.665Z,100094.53
2023-04-04T04:22:14.191Z,100096.31
2023-04-04T04:24:41.701Z,100090.31
2023-04-04T04:27:09.238Z,100075.41
2023-04-04T04:29:37.472Z,100075.34
2023-04-04T04:32:05.054Z,100085.03
2023-04-04T04:34:33.999Z,100090.97
2023-04-04T04:37:01.570Z,100090.22
2023-04-04T04:39:29.145Z,100086.81
2023-04-04T04:41:57.006Z,100088.59
2023-04-04T04:44:24.632Z,100089.59
2023-04-04T04:46:52.340Z,100088.47
2023-04-04T04:49:20.022Z,100090.13
2023-04-04T04:51:49.122Z,100096.88
2023-04-04T04:54:16.708Z,100093.44
2023-04-04T04:56:44.423Z,100100.38
2023-04-04T04:59:12.807Z,100093.56
2023-04-04T05:01:40.460Z,100094.56
2023-04-04T05:04:08.142Z,100098.84
2023-04-04T05:06:35.665Z,100099.03
2023-04-04T05:09:04.784Z,100111.16
2023-04-04T05:11:32.315Z,100103.09
2023-04-04T05:14:00.301Z,100104.91
2023-04-04T05:16:27.906Z,100098.00
2023-04-04T05:18:55.455Z,100103.16
2023-04-04T05:21:23.517Z,100100.88
2023-04-04T05:23:51.345Z,100098.28
2023-04-04T05:26:20.262Z,100111.28
2023-04-04T05:28:47.903Z,100107.88
2023-04-04T05:31:15.635Z,100106.09
2023-04-04T05:33:43.208Z,100107.16
2023-04-04T05:36:12.632Z,100109.78
2023-04-04T05:38:40.241Z,100097.94
2023-04-04T05:41:07.818Z,100099.38
2023-04-04T05:43:36.861Z,100100.53
2023-04-04T05:46:04.532Z,100091.28
2023-04-04T05:48:32.128Z,100096.41
2023-04-04T05:50:59.939Z,100090.38
2023-04-04T05:53:27.714Z,100091.34
2023-04-04T05:55:55.273Z,100089.00
2023-04-04T05:58:23.120Z,100094.16
2023-04-04T06:00:52.478Z,100082.78
2023-04-04T06:03:22.023Z,100090.72
2023-04-04T06:05:52.282Z,100098.56
2023-04-04T06:08:20.004Z,100093.41
2023-04-04T06:10:47.729Z,100066.69
2023-04-04T06:13:15.708Z,100098.84
2023-04-04T06:15:43.465Z,100096.31
2023-04-04T06:18:12.872Z,100101.63
2023-04-04T06:20:41.574Z,100070.50
2023-04-04T06:23:10.126Z,100095.88
2023-04-04T06:25:37.913Z,100105.47
2023-04-04T06:28:06.167Z,100104.63
2023-04-04T06:30:37.464Z,100098.69
2023-04-04T06:33:06.010Z,100110.16
2023-04-04T06:35:35.395Z,100095.31
2023-04-04T06:38:04.155Z,100119.03
2023-04-04T06:40:31.813Z,100107.94
2023-04-04T06:42:59.454Z,100107.16
2023-04-04T06:45:27.585Z,100116.78
2023-04-04T06:47:56.667Z,100111.59
2023-04-04T06:50:24.604Z,100116.03
2023-04-04T06:52:55.562Z,100103.16
2023-04-04T06:55:23.386Z,100104.16
2023-04-04T06:57:51.630Z,100114.56
2023-04-04T07:00:25.322Z,100112.13
2023-04-04T07:02:59.127Z,100103.47
2023-04-04T07:05:26.895Z,100094.91
2023-04-04T07:07:56.884Z,100114.84
2023-04-04T07:10:25.533Z,100107.97
2023-04-04T07:12:53.300Z,100084.44
2023-04-04T07:15:21.201Z,100106.19
2023-04-04T07:17:49.480Z,100120.13
2023-04-04T07:20:17.401Z,100115.81
2023-04-04T07:22:45.371Z,100114.94
2023-04-04T07:25:14.279Z,100135.00
2023-04-04T07:27:42.309Z,100103.63
2023-04-04T07:30:11.224Z,100133.16
2023-04-04T07:32:39.292Z,100129.00
2023-04-04T07:35:07.985Z,100118.63
2023-04-04T07:37:38.188Z,100128.84
2023-04-04T07:40:08.685Z,100112.44
2023-04-04T07:42:37.940Z,100097.75
2023-04-04T07:45:06.287Z,100129.84
2023-04-04T07:47:33.952Z,100129.94
2023-04-04T07:50:01.628Z,100126.44
2023-04-04T07:52:29.534Z,100125.50
2023-04-04T07:54:57.219Z,100118.63
2023-04-04T07:57:25.167Z,100123.97
2023-04-04T07:59:54.254Z,100129.22
2023-04-04T08:02:22.380Z,100093.56
2023-04-04T08:04:50.250Z,100121.53
2023-04-04T08:07:18.015Z,100125.00
2023-04-04T08:09:45.704Z,100105.00
2023-04-04T08:12:13.258Z,100112.00
2023-04-04T08:14:40.839Z,100113.75
2023-04-04T08:17:09.869Z,100101.59
2023-04-04T08:19:37.632Z,100101.59
2023-04-04T08:22:05.556Z,100105.09
2023-04-04T08:24:33.106Z,100105.94
2023-04-04T08:27:04.977Z,100098.13
2023-04-04T08:29:34.369Z,100101.56
2023-04-04T08:32:02.215Z,100107.59
2023-04-04T08:34:31.988Z,100111.94
2023-04-04T08:36:59.945Z,100103.25
2023-04-04T08:39:28.074Z,100114.47
2023-04-04T08:42:03.640Z,100115.41
2023-04-04T08:44:32.064Z,100112.72
2023-04-04T08:47:01.320Z,100119.69
2023-04-04T08:49:33.540Z,100112.81
2023-04-04T08:52:03.820Z,100108.34
2023-04-04T08:54:32.154Z,100111.81
2023-04-04T08:56:59.751Z,100109.13
2023-04-04T08:59:28.247Z,100108.13
2023-04-04T09:02:02.563Z,100114.25
2023-04-04T09:04:31.849Z,100105.59
2023-04-04T09:07:00.363Z,100097.63
2023-04-04T09:09:28.867Z,100108.97
2023-04-04T09:11:56.558Z,100100.06
2023-04-04T09:14:27.210Z,100110.75
2023-04-04T09:16:54.878Z,100114.13
2023-04-04T09:19:24.480Z,100102.94
2023-04-04T09:21:55.115Z,100105.34
2023-04-04T09:24:22.777Z,100104.38
2023-04-04T09:26:52.057Z,100106.03
2023-04-04T09:29:20.545Z,100096.44
2023-04-04T09:31:49.528Z,100090.25
2023-04-04T09:34:19.385Z,100105.13
2023-04-04T09:36:47.644Z,100090.50
2023-04-04T09:39:17.470Z,100090.53
2023-04-04T09:41:46.019Z,100107.28
2023-04-04T09:44:14.043Z,100101.22
2023-04-04T09:46:41.867Z,100102.81
2023-04-04T09:49:13.167Z,100105.47
2023-04-04T09:51:42.586Z,100111.78
2023-04-04T09:54:18.625Z,100107.16
2023-04-04T09:56:52.368Z,100102.72
2023-04-04T09:59:20.081Z,100101.66
2023-04-04T10:01:51.102Z,100102.34
2023-04-04T10:04:19.603Z,100099.53
2023-04-04T10:06:47.648Z,100098.34
2023-04-04T10:09:16.362Z,100091.81
2023-04-04T10:11:44.037Z,100098.84
2023-04-04T10:14:12.988Z,100090.91
2023-04-04T10:16:45.990Z,100093.78
2023-04-04T10:19:15.366Z,100096.44
2023-04-04T10:21:43.359Z,100098.06
2023-04-04T10:24:11.453Z,100102.44
2023-04-04T10:26:39.820Z,100085.66
2023-04-04T10:29:07.443Z,100088.72
2023-04-04T10:31:40.912Z,100089.16
2023-04-04T10:34:17.390Z,100092.34
2023-04-04T10:36:46.426Z,100088.88
2023-04-04T10:39:15.955Z,100088.31
2023-04-04T10:41:43.778Z,100094.13
2023-04-04T10:44:16.264Z,100088.78
2023-04-04T10:46:48.352Z,100083.69
2023-04-04T10:49:16.396Z,100081.66
2023-04-04T10:51:55.045Z,100076.72
2023-04-04T10:54:23.679Z,100081.00
2023-04-04T10:56:51.516Z,100071.94
2023-04-04T10:59:19.207Z,100069.09
2023-04-04T11:01:57.515Z,100065.25
2023-04-04T11:04:33.998Z,100065.28
2023-04-04T11:07:11.873Z,100060.75
2023-04-04T11:09:55.826Z,100068.00
2023-04-04T11:12:36.144Z,100063.22
2023-04-04T11:15:11.708Z,100064.78
2023-04-04T11:17:54.725Z,100056.09
2023-04-04T11:20:23.853Z,100048.31
2023-04-04T11:22:52.520Z,100046.72
2023-04-04T11:25:38.638Z,100047.22
2023-04-04T11:28:08.984Z,100039.66
2023-04-04T11:30:44.833Z,100047.91
2023-04-04T11:33:15.320Z,100037.91
2023-04-04T11:35:48.383Z,100041.41
2023-04-04T11:38:16.974Z,100038.66
2023-04-04T11:40:54.356Z,100029.56
2023-04-04T11:43:22.354Z,100026.03
2023-04-04T11:45:50.738Z,100033.69
2023-04-04T11:48:20.970Z,100027.31
2023-04-04T11:50:52.724Z,100008.72
2023-04-04T11:53:20.886Z,100009.34
2023-04-04T11:55:50.253Z,100011.31
2023-04-04T11:58:19.322Z,100012.63
2023-04-04T12:00:47.776Z,100009.63
2023-04-04T12:03:18.521Z,100000.97
2023-04-04T12:05:47.871Z,100007.56
2023-04-04T12:08:15.791Z,100006.84
2023-04-04T12:10:44.317Z,100003.03
2023-04-04T12:13:13.061Z,99994.84
2023-04-04T12:15:40.787Z,100000.03
2023-04-04T12:18:09.283Z,99998.16
2023-04-04T12:20:39.525Z,100002.94
2023-04-04T12:23:09.497Z,99996.25
2023-04-04T12:25:39.976Z,99991.16
2023-04-04T12:28:08.423Z,99991.50
2023-04-04T12:30:36.244Z,99984.63
2023-04-04T12:33:04.037Z,99988.31
2023-04-04T12:35:31.924Z,99987.94
2023-04-04T12:38:03.819Z,99988.16
2023-04-04T12:40:38.082Z,99976.88
2023-04-04T12:43:07.370Z,99974.41
2023-04-04T12:45:38.996Z,99984.75
2023-04-04T12:48:14.455Z,99976.16
2023-04-04T12:50:52.946Z,99973.34
2023-04-04T12:53:29.083Z,99963.84
2023-04-04T12:56:03.213Z,99960.69
2023-04-04T12:58:30.977Z,99954.53
2023-04-04T13:01:01.298Z,99962.44
2023-04-04T13:03:29.473Z,99958.81
2023-04-04T13:05:59.669Z,99952.69
2023-04-04T13:08:27.317Z,99942.81
2023-04-04T13:11:02.014Z,99949.50
2023-04-04T13:13:34.219Z,99940.22
2023-04-04T13:16:02.560Z,99938.38
2023-04-04T13:18:35.471Z,99937.19
2023-04-04T13:21:03.075Z,99938.72
2023-04-04T13:23:30.743Z,99933.69
2023-04-04T13:25:59.752Z,99935.81
2023-04-04T13:28:27.652Z,99933.81
2023-04-04T13:30:55.765Z,99932.22
2023-04-04T13:33:23.447Z,99930.41
2023-04-04T13:35:51.406Z,99917.03
2023-04-04T13:38:19.092Z,99922.91
2023-04-04T13:40:46.828Z,99928.53
2023-04-04T13:43:16.101Z,99919.72
2023-04-04T13:45:44.279Z,99911.00
2023-04-04T13:48:11.899Z,99911.03
2023-04-04T13:50:41.567Z,99906.50
2023-04-04T13:53:13.271Z,99910.28
2023-04-04T13:55:52.061Z,99908.69
2023-04-04T13:58:27.014Z,99904.72
2023-04-04T14:00:56.428Z,99901.00
2023-04-04T14:03:25.325Z,99908.00
2023-04-04T14:05:54.080Z,99905.22
2023-04-04T14:08:22.147Z,99895.22
2023-04-04T14:10:50.288Z,99891.59
2023-04-04T14:13:18.597Z,99884.19
2023-04-04T14:15:50.423Z,99876.88
2023-04-04T14:18:19.009Z,99878.06
2023-04-04T14:20:47.200Z,99873.84
2023-04-04T14:23:15.516Z,99872.91
2023-04-04T14:25:44.169Z,99869.09
2023-04-04T14:28:15.457Z,99862.38
2023-04-04T14:30:44.083Z,99866.00
2023-04-04T14:33:16.436Z,99855.28
2023-04-04T14:35:44.604Z,99855.59
2023-04-04T14:38:13.495Z,99851.81
2023-04-04T14:40:41.138Z,99861.09
2023-04-04T14:43:08.719Z,99853.75
2023-04-04T14:45:36.644Z,99854.00
2023-04-04T14:48:04.249Z,99845.75
2023-04-04T14:50:33.244Z,99849.28
2023-04-04T14:53:00.833Z,99851.88
2023-04-04T14:55:28.615Z,99848.53
2023-04-04T15:00:27.083Z,99841.22
2023-04-04T15:02:54.935Z,99840.44
2023-04-04T15:05:23.017Z,99838.63
2023-04-04T15:07:52.044Z,99839.16
2023-04-04T15:10:19.744Z,99843.00
2023-04-04T15:12:47.458Z,99838.78
2023-04-04T15:15:15.685Z,99819.47
2023-04-04T15:17:43.373Z,99829.59
2023-04-04T15:20:12.301Z,99832.69
2023-04-04T15:22:41.524Z,99826.44
2023-04-04T15:25:11.161Z,99833.13
2023-04-04T15:27:38.714Z,99831.22
2023-04-04T15:30:07.187Z,99830.31
2023-04-04T15:32:34.815Z,99835.63
2023-04-04T15:35:04.342Z,99837.78
2023-04-04T15:37:31.965Z,99829.06
2023-04-04T15:39:59.508Z,99823.56
2023-04-04T15:42:29.241Z,99827.09
2023-04-04T15:44:57.149Z,99814.72
2023-04-04T15:47:24.747Z,99817.53
2023-04-04T15:49:52.427Z,99817.66
2023-04-04T15:52:20.040Z,99815.94
2023-04-04T15:54:47.825Z,99807.38
2023-04-04T15:57:15.711Z,99815.34
2023-04-04T15:59:44.678Z,99816.09
2023-04-04T16:02:12.257Z,99805.38
2023-04-04T16:04:39.884Z,99807.22
2023-04-04T16:07:07.607Z,99798.81
2023-04-04T16:09:36.117Z,99809.03
2023-04-04T16:12:03.898Z,99800.50
2023-04-04T16:14:31.645Z,99801.41
2023-04-04T16:17:02.686Z,99803.09
2023-04-04T16:19:30.528Z,99797.69
2023-04-04T16:21:58.958Z,99789.28
2023-04-04T16:24:27.425Z,99796.16
2023-04-04T16:26:55.064Z,99791.72
2023-04-04T16:29:22.795Z,99782.34
2023-04-04T16:31:50.531Z,99785.84
2023-04-04T16:34:19.569Z,99784.00
2023-04-04T16:36:47.364Z,99774.06
2023-04-04T16:39:15.114Z,99771.53
2023-04-04T16:41:42.709Z,99781.34
2023-04-04T16:44:12.198Z,99777.59
2023-04-04T16:46:40.475Z,99774.09
2023-04-04T16:49:08.364Z,99772.38
2023-04-04T16:51:37.310Z,99775.69
2023-04-04T16:54:05.019Z,99771.53
2023-04-04T16:56:32.731Z,99771.72
2023-04-04T16:59:00.424Z,99766.94
2023-04-04T17:01:27.970Z,99772.41
2023-04-04T17:03:55.588Z,99772.25
2023-04-04T17:06:23.216Z,99771.75
2023-04-04T17:08:52.146Z,99780.53
2023-04-04T17:11:19.683Z,99776.41
2023-04-04T17:13:47.534Z,99773.06
2023-04-04T17:16:15.216Z,99778.25
2023-04-04T17:18:43.776Z,99776.72
2023-04-04T17:21:11.352Z,99772.56
2023-04-04T17:23:38.910Z,99772.44
2023-04-04T17:26:07.828Z,99768.09
2023-04-04T17:28:35.572Z,99779.78
2023-04-04T17:31:03.250Z,99770.09
2023-04-04T17:33:31.073Z,99773.81
2023-04-04T17:35:58.664Z,99772.31
2023-04-04T17:38:26.579Z,99781.50
2023-04-04T17:40:54.224Z,99776.09
2023-04-04T17:43:23.154Z,99781.78
2023-04-04T17:45:50.827Z,99775.03
2023-04-04T17:48:18.412Z,99776.75
2023-04-04T17:50:46.016Z,99773.41
2023-04-04T17:53:13.577Z,99770.75
2023-04-04T17:55:41.257Z,99778.66
2023-04-04T17:58:08.917Z,99782.25
2023-04-04T18:00:38.039Z,99776.84
2023-04-04T18:03:06.050Z,99774.50
2023-04-04T18:05:34.450Z,99773.84
2023-04-04T18:08:04.721Z,99771.94
2023-04-04T18:10:32.760Z,99762.47
2023-04-04T18:13:01.267Z,99777.41
2023-04-04T18:15:29.380Z,99775.59
2023-04-04T18:17:58.429Z,99773.72
2023-04-04T18:20:34.583Z,99778.34
2023-04-04T18:23:03.947Z,99776.00
2023-04-04T18:25:31.632Z,99782.13
2023-04-04T18:27:59.675Z,99783.13
2023-04-04T18:30:27.861Z,99789.13
2023-04-04T18:32:58.263Z,99792.84
2023-04-04T18:35:26.290Z,99787.72
2023-04-04T18:37:53.837Z,99793.09
2023-04-04T18:40:21.523Z,99794.72
2023-04-04T18:42:49.262Z,99795.75
2023-04-04T18:45:18.269Z,99789.66
2023-04-04T18:47:45.975Z,99786.31
2023-04-04T18:50:15.598Z,99801.38
2023-04-04T18:52:43.249Z,99800.44
2023-04-04T18:55:11.882Z,99802.44
2023-04-04T18:57:39.651Z,99797.97
2023-04-04T19:00:08.748Z,99807.66
2023-04-04T19:02:37.555Z,99809.47
2023-04-04T19:05:05.857Z,99806.91
2023-04-04T19:07:35.681Z,99798.19
2023-04-04T19:10:05.467Z,99807.81
2023-04-04T19:12:33.021Z,99809.69
2023-04-04T19:15:01.337Z,99803.50
2023-04-04T19:17:29.645Z,99801.84
2023-04-04T19:19:58.061Z,99806.22
2023-04-04T19:22:25.651Z,99802.72
2023-04-04T19:24:54.789Z,99810.66
2023-04-04T19:27:22.359Z,99810.53
2023-04-04T19:29:49.895Z,99812.41
2023-04-04T19:32:19.643Z,99803.69
2023-04-04T19:34:47.857Z,99810.88
2023-04-04T19:37:17.516Z,99811.69
2023-04-04T19:39:45.365Z,99800.50
2023-04-04T19:42:14.549Z,99807.34
2023-04-04T19:44:42.503Z,99804.84
2023-04-04T19:47:10.918Z,99810.03
2023-04-04T19:49:39.600Z,99806.56
2023-04-04T19:52:08.625Z,99801.44
2023-04-04T19:54:41.559Z,99794.50
2023-04-04T19:57:16.857Z,99801.44
2023-04-04T19:59:59.365Z,99800.66
2023-04-04T20:02:50.031Z,99806.69
2023-04-04T20:05:53.582Z,99805.03
2023-04-04T20:08:21.339Z,99806.78
2023-04-04T20:10:49.737Z,99810.22
2023-04-04T20:13:19.946Z,99803.38
2023-04-04T20:16:09.003Z,99804.22
2023-04-04T20:18:37.774Z,99808.47
2023-04-04T20:21:10.386Z,99805.88
2023-04-04T20:23:43.861Z,99809.41
2023-04-04T20:26:14.377Z,99809.47
2023-04-04T20:28:44.976Z,99810.41
2023-04-04T20:31:17.079Z,99811.28
2023-04-04T20:33:45.278Z,99815.69
2023-04-04T20:36:32.478Z,99812.16
2023-04-04T20:39:00.280Z,99810.47
2023-04-04T20:41:28.176Z,99810.47
2023-04-04T20:43:58.193Z,99798.31
2023-04-04T20:46:27.019Z,99807.94
2023-04-04T20:48:56.630Z,99807.91
2023-04-04T20:51:31.809Z,99807.09
2023-04-04T20:54:00.903Z,99807.13
2023-04-04T20:56:47.233Z,99806.22
2023-04-04T20:59:40.445Z,99803.59
2023-04-04T21:02:10.689Z,99806.19
2023-04-04T21:04:38.842Z,99814.91
2023-04-04T21:07:06.838Z,99813.19
2023-04-04T21:09:34.679Z,99817.56
2023-04-04T21:12:02.718Z,99820.19
2023-04-04T21:14:37.876Z,99820.19
2023-04-04T21:17:07.004Z,99821.91
2023-04-04T21:19:34.538Z,99831.44
2023-04-04T21:22:02.142Z,99828.00
2023-04-04T21:24:34.052Z,99830.59
2023-04-04T21:27:04.394Z,99834.06
2023-04-04T21:29:31.968Z,99822.81
2023-04-04T21:32:02.738Z,99821.06
2023-04-04T21:34:30.906Z,99822.81
2023-04-04T21:37:02.680Z,99821.13
2023-04-04T21:39:31.085Z,99817.63
2023-04-04T21:42:00.047Z,99825.47
2023-04-04T21:44:27.818Z,99825.50
2023-04-04T21:46:55.642Z,99826.38
2023-04-04T21:49:25.001Z,99829.00
2023-04-04T21:51:52.771Z,99827.25
2023-04-04T21:54:20.688Z,99824.66
2023-04-04T21:56:48.430Z,99824.66
2023-04-04T21:59:16.128Z,99823.81
2023-04-04T22:01:43.891Z,99822.94
2023-04-04T22:04:11.541Z,99828.16
2023-04-04T22:06:40.628Z,99816.88
2023-04-04T22:09:08.273Z,99819.47
2023-04-04T22:11:38.833Z,99820.31
2023-04-04T22:14:07.021Z,99821.22
2023-04-04T22:16:38.951Z,99821.22
2023-04-04T22:19:11.588Z,99819.50
2023-04-04T22:21:46.613Z,99822.09
2023-04-04T22:24:17.543Z,99828.16
2023-04-04T22:26:45.908Z,99822.91
2023-04-04T22:29:13.761Z,99825.56
2023-04-04T22:31:41.566Z,99821.22
2023-04-04T22:34:09.429Z,99821.25
2023-04-04T22:36:38.641Z,99810.81
2023-04-04T22:39:07.673Z,99816.03
2023-04-04T22:41:35.420Z,99813.44
2023-04-04T22:44:03.065Z,99815.19
2023-04-04T22:46:31.562Z,99822.13
2023-04-04T22:49:06.350Z,99811.72
2023-04-04T22:51:42.724Z,99815.19
2023-04-04T22:54:12.894Z,99805.63
2023-04-04T22:56:40.574Z,99805.66
2023-04-04T22:59:08.271Z,99804.78
2023-04-04T23:01:35.982Z,99807.38
2023-04-04T23:04:03.771Z,99802.19
2023-04-04T23:06:31.438Z,99803.03
2023-04-04T23:08:59.302Z,99803.06
2023-04-04T23:11:28.233Z,99798.69
2023-04-04T23:13:57.090Z,99802.16
2023-04-04T23:16:26.141Z,99796.09
2023-04-04T23:18:54.048Z,99797.84
2023-04-04T23:21:21.926Z,99791.78
2023-04-04T23:23:49.868Z,99794.38
2023-04-04T23:26:17.404Z,99792.66
2023-04-04T23:28:46.375Z,99788.31
2023-04-04T23:31:14.737Z,99783.13
2023-04-04T23:33:42.912Z,99784.84
2023-04-04T23:36:10.599Z,99782.25
2023-04-04T23:38:38.222Z,99783.97
2023-04-04T23:41:06.007Z,99781.38
2023-04-04T23:43:35.461Z,99783.13
2023-04-04T23:46:04.552Z,99774.44
2023-04-04T23:48:32.527Z,99777.03
2023-04-04T23:51:01.599Z,99764.91
2023-04-04T23:53:29.517Z,99771.84
2023-04-04T23:55:57.153Z,99769.25
2023-04-04T23:58:24.843Z,99776.19
